createdAt,value
2023-01-11T00:00:44.960Z,1.23
2023-01-11T00:03:12.196Z,0.90
2023-01-11T00:05:40.117Z,0.80
2023-01-11T00:08:07.779Z,1.77
2023-01-11T00:10:35.177Z,1.47
2023-01-11T00:13:02.550Z,1.27
2023-01-11T00:15:29.694Z,0.70
2023-01-11T00:17:57.672Z,1.30
2023-01-11T00:20:24.930Z,0.93
2023-01-11T00:22:52.270Z,0.77
2023-01-11T00:25:19.364Z,0.80
2023-01-11T00:27:49.349Z,2.03
2023-01-11T00:30:17.140Z,0.73
2023-01-11T00:32:44.450Z,0.60
2023-01-11T00:35:11.690Z,0.73
2023-01-11T00:37:39.030Z,0.83
2023-01-11T00:40:06.696Z,1.30
2023-01-11T00:42:52.739Z,0.97
2023-01-11T00:45:38.582Z,2.00
2023-01-11T00:48:09.119Z,0.70
2023-01-11T00:50:37.857Z,0.50
2023-01-11T00:53:05.455Z,0.80
2023-01-11T00:55:32.820Z,1.80
2023-01-11T00:58:00.459Z,0.87
2023-01-11T01:00:28.117Z,2.83
2023-01-11T01:02:55.351Z,1.03
2023-01-11T01:05:22.682Z,2.87
2023-01-11T01:07:49.759Z,1.83
2023-01-11T01:10:17.735Z,1.63
2023-01-11T01:13:04.077Z,0.77
2023-01-11T01:15:31.816Z,1.37
2023-01-11T01:17:59.043Z,0.83
2023-01-11T01:20:26.582Z,0.67
2023-01-11T01:22:53.775Z,0.60
2023-01-11T01:25:20.907Z,0.60
2023-01-11T01:27:48.021Z,0.90
2023-01-11T01:30:15.325Z,1.03
2023-01-11T01:32:42.759Z,1.13
2023-01-11T01:35:10.200Z,0.87
2023-01-11T01:37:37.792Z,0.50
2023-01-11T01:40:05.856Z,0.60
2023-01-11T01:42:32.982Z,1.17
2023-01-11T01:45:01.523Z,1.07
2023-01-11T01:47:31.903Z,0.67
2023-01-11T01:50:02.348Z,1.50
2023-01-11T01:52:30.330Z,1.53
2023-01-11T01:55:00.871Z,0.60
2023-01-11T01:57:31.427Z,1.43
2023-01-11T01:59:59.209Z,0.57
2023-01-11T02:02:27.069Z,0.60
2023-01-11T02:04:56.355Z,0.63
2023-01-11T02:07:27.274Z,0.60
2023-01-11T02:10:00.579Z,0.83
2023-01-11T02:12:30.349Z,0.80
2023-01-11T02:15:00.109Z,1.20
2023-01-11T02:17:27.227Z,0.87
2023-01-11T02:20:00.465Z,2.10
2023-01-11T02:22:27.524Z,1.10
2023-01-11T02:25:10.755Z,1.57
2023-01-11T02:27:58.442Z,1.17
2023-01-11T02:30:40.598Z,1.57
2023-01-11T02:33:16.887Z,1.37
2023-01-11T02:35:52.942Z,1.20
2023-01-11T02:38:20.072Z,1.00
2023-01-11T02:40:47.222Z,1.07
2023-01-11T02:43:33.251Z,0.70
2023-01-11T02:46:00.368Z,0.97
2023-01-11T02:48:32.589Z,1.43
2023-01-11T02:50:59.717Z,1.00
2023-01-11T02:53:30.683Z,1.53
2023-01-11T02:56:00.115Z,0.90
2023-01-11T02:58:29.078Z,0.93
2023-01-11T03:00:58.477Z,0.80
2023-01-11T03:03:27.839Z,0.73
2023-01-11T03:05:59.731Z,0.70
2023-01-11T03:08:29.861Z,2.13
2023-01-11T03:11:05.762Z,0.80
2023-01-11T03:13:55.581Z,2.80
2023-01-11T03:16:25.734Z,0.80
2023-01-11T03:19:11.491Z,1.40
2023-01-11T03:21:41.594Z,1.53
2023-01-11T03:24:08.746Z,1.63
2023-01-11T03:26:41.716Z,2.33
2023-01-11T03:29:08.790Z,1.10
2023-01-11T03:31:39.104Z,1.47
2023-01-11T03:34:15.413Z,1.23
2023-01-11T03:36:55.132Z,1.23
2023-01-11T03:39:30.777Z,1.10
2023-01-11T03:42:00.336Z,1.17
2023-01-11T03:44:31.438Z,2.23
2023-01-11T03:47:01.840Z,2.67
2023-01-11T03:49:31.877Z,1.37
2023-01-11T03:52:00.336Z,2.10
2023-01-11T03:54:28.804Z,1.17
2023-01-11T03:57:11.215Z,1.93
2023-01-11T03:59:41.200Z,1.60
2023-01-11T04:02:18.975Z,3.00
2023-01-11T04:04:46.116Z,1.83
2023-01-11T04:07:14.448Z,2.20
2023-01-11T04:09:41.560Z,1.50
2023-01-11T04:12:08.736Z,1.97
2023-01-11T04:14:35.828Z,2.47
2023-01-11T04:17:02.978Z,1.80
2023-01-11T04:19:30.144Z,1.70
2023-01-11T04:21:57.434Z,1.73
2023-01-11T04:24:24.612Z,2.60
2023-01-11T04:26:51.703Z,1.83
2023-01-11T04:29:18.818Z,2.70
2023-01-11T04:31:45.976Z,2.97
2023-01-11T04:34:13.133Z,1.47
2023-01-11T04:36:40.285Z,1.77
2023-01-11T04:39:10.662Z,3.10
2023-01-11T04:41:57.355Z,2.53
2023-01-11T04:44:24.722Z,1.37
2023-01-11T04:46:51.792Z,1.23
2023-01-11T04:49:18.943Z,2.43
2023-01-11T04:51:46.365Z,1.80
2023-01-11T04:54:13.544Z,2.70
2023-01-11T04:56:40.708Z,3.23
2023-01-11T04:59:07.844Z,3.30
2023-01-11T05:01:34.956Z,3.17
2023-01-11T05:04:02.086Z,2.37
2023-01-11T05:06:29.324Z,3.07
2023-01-11T05:08:56.480Z,2.23
2023-01-11T05:11:23.578Z,3.03
2023-01-11T05:13:50.740Z,2.40
2023-01-11T05:16:23.705Z,3.53
2023-01-11T05:18:52.274Z,2.97
2023-01-11T05:21:20.392Z,2.40
2023-01-11T05:23:47.564Z,3.83
2023-01-11T05:26:17.750Z,2.83
2023-01-11T05:28:45.652Z,3.57
2023-01-11T05:31:13.301Z,4.43
2023-01-11T05:33:40.413Z,5.00
2023-01-11T05:36:09.272Z,2.73
2023-01-11T05:38:36.575Z,4.40
2023-01-11T05:41:05.432Z,6.27
2023-01-11T05:43:33.042Z,3.97
2023-01-11T05:46:01.548Z,4.40
2023-01-11T05:48:28.705Z,4.67
2023-01-11T05:50:56.355Z,3.63
2023-01-11T05:53:24.294Z,6.27
2023-01-11T05:55:58.689Z,7.57
2023-01-11T05:58:26.887Z,6.80
2023-01-11T06:00:55.042Z,9.10
2023-01-11T06:03:23.264Z,7.00
2023-01-11T06:05:50.764Z,5.07
2023-01-11T06:08:17.889Z,4.93
2023-01-11T06:10:46.214Z,5.33
2023-01-11T06:13:28.886Z,5.73
2023-01-11T06:16:00.117Z,4.83
2023-01-11T06:18:27.500Z,3.43
2023-01-11T06:20:55.488Z,3.60
2023-01-11T06:23:22.881Z,3.77
2023-01-11T06:25:50.132Z,6.27
2023-01-11T06:28:17.410Z,4.17
2023-01-11T06:30:44.844Z,4.60
2023-01-11T06:33:11.936Z,2.73
2023-01-11T06:35:40.256Z,3.30
2023-01-11T06:38:08.496Z,5.60
2023-01-11T06:40:36.382Z,4.70
2023-01-11T06:43:03.599Z,4.53
2023-01-11T06:45:31.452Z,5.07
2023-01-11T06:47:59.003Z,5.07
2023-01-11T06:50:26.611Z,2.73
2023-01-11T06:52:54.812Z,3.03
2023-01-11T06:55:22.345Z,1.30
2023-01-11T06:57:49.493Z,4.47
2023-01-11T07:00:17.379Z,1.77
2023-01-11T07:02:45.459Z,1.60
2023-01-11T07:05:12.722Z,0.90
2023-01-11T07:07:40.536Z,1.67
2023-01-11T07:10:10.050Z,0.97
2023-01-11T07:12:37.083Z,1.37
2023-01-11T07:15:09.414Z,1.10
2023-01-11T07:17:38.600Z,1.03
2023-01-11T07:20:06.281Z,0.87
2023-01-11T07:22:36.977Z,2.57
2023-01-11T07:25:05.182Z,3.60
2023-01-11T07:27:32.169Z,1.03
2023-01-11T07:29:59.924Z,2.27
2023-01-11T07:32:27.671Z,2.40
2023-01-11T07:34:55.219Z,1.87
2023-01-11T07:37:28.217Z,1.77
2023-01-11T07:39:56.227Z,2.20
2023-01-11T07:42:41.726Z,2.80
2023-01-11T07:45:08.939Z,2.90
2023-01-11T07:47:35.712Z,3.10
2023-01-11T07:50:02.432Z,3.10
2023-01-11T07:52:29.171Z,4.90
2023-01-11T07:55:02.117Z,4.07
2023-01-11T07:57:32.463Z,3.23
2023-01-11T07:59:59.158Z,3.60
2023-01-11T08:02:25.991Z,4.00
2023-01-11T08:04:52.819Z,5.07
2023-01-11T08:07:19.666Z,8.43
2023-01-11T08:09:46.377Z,7.03
2023-01-11T08:12:31.387Z,5.30
2023-01-11T08:14:58.105Z,5.57
2023-01-11T08:17:24.906Z,11.83
2023-01-11T08:19:51.839Z,8.07
2023-01-11T08:22:18.639Z,7.93
2023-01-11T08:24:45.380Z,8.67
2023-01-11T08:27:12.106Z,6.73
2023-01-11T08:29:39.959Z,5.67
2023-01-11T08:32:06.815Z,6.67
2023-01-11T08:34:34.838Z,6.33
2023-01-11T08:37:02.211Z,6.47
2023-01-11T08:39:31.046Z,4.20
2023-01-11T08:41:58.980Z,10.90
2023-01-11T08:44:33.783Z,12.03
2023-01-11T08:47:01.928Z,16.00
2023-01-11T08:49:30.356Z,6.07
2023-01-11T08:51:57.455Z,8.80
2023-01-11T08:54:24.998Z,13.60
2023-01-11T08:56:51.849Z,8.97
2023-01-11T08:59:20.003Z,21.13
2023-01-11T09:01:47.253Z,13.20
2023-01-11T09:04:24.247Z,9.87
2023-01-11T09:06:53.067Z,12.97
2023-01-11T09:09:19.948Z,10.73
2023-01-11T09:11:56.977Z,11.47
2023-01-11T09:14:26.018Z,12.37
2023-01-11T09:16:53.984Z,14.10
2023-01-11T09:19:21.522Z,13.33
2023-01-11T09:21:49.042Z,8.10
2023-01-11T09:24:15.868Z,10.37
2023-01-11T09:26:43.658Z,12.97
2023-01-11T09:29:11.162Z,15.10
2023-01-11T09:31:38.514Z,14.67
2023-01-11T09:34:07.128Z,12.90
2023-01-11T09:36:37.416Z,11.50
2023-01-11T09:39:08.436Z,12.30
2023-01-11T09:42:29.449Z,19.23
2023-01-11T09:45:05.249Z,17.87
2023-01-11T09:47:41.064Z,11.23
2023-01-11T09:50:19.807Z,14.77
2023-01-11T09:52:52.672Z,11.53
2023-01-11T09:55:52.890Z,13.47
2023-01-11T09:58:32.433Z,14.03
2023-01-11T10:01:11.034Z,11.47
2023-01-11T10:04:11.796Z,9.67
2023-01-11T10:07:03.707Z,11.23
2023-01-11T10:18:27.905Z,11.83
2023-01-11T10:18:52.867Z,12.53
2023-01-11T10:21:45.709Z,10.40
2023-01-11T10:24:17.552Z,10.10
2023-01-11T10:26:45.530Z,17.53
2023-01-11T10:29:54.031Z,20.00
2023-01-11T10:32:54.231Z,13.30
2023-01-11T10:35:47.803Z,16.23
2023-01-11T10:38:43.542Z,17.87
2023-01-11T10:41:29.999Z,11.37
2023-01-11T10:44:19.212Z,12.50
2023-01-11T10:46:53.762Z,36.23
2023-01-11T10:49:45.435Z,9.80
2023-01-11T10:52:22.541Z,12.07
2023-01-11T10:54:54.666Z,12.30
2023-01-11T10:57:27.939Z,13.00
2023-01-11T11:00:18.943Z,15.33
2023-01-11T11:02:54.442Z,13.17
2023-01-11T11:05:41.571Z,11.97
2023-01-11T11:08:27.003Z,19.13
2023-01-11T11:11:02.557Z,16.17
2023-01-11T11:13:38.398Z,9.60
2023-01-11T11:16:23.523Z,11.10
2023-01-11T11:18:52.075Z,8.90
2023-01-11T11:21:41.402Z,12.93
2023-01-11T11:24:14.106Z,14.60
2023-01-11T11:26:46.087Z,10.70
2023-01-11T11:29:22.575Z,10.73
2023-01-11T11:31:50.330Z,9.97
2023-01-11T11:34:22.284Z,9.93
2023-01-11T11:36:51.568Z,14.73
2023-01-11T11:39:30.899Z,11.73
2023-01-11T11:42:08.419Z,10.43
2023-01-11T11:44:35.480Z,13.27
2023-01-11T11:47:13.927Z,12.00
2023-01-11T11:49:41.997Z,17.43
2023-01-11T11:52:15.118Z,11.47
2023-01-11T11:55:05.867Z,8.07
2023-01-11T11:57:42.676Z,12.67
2023-01-11T12:00:31.126Z,7.83
2023-01-11T12:03:18.533Z,10.70
2023-01-11T12:06:01.153Z,17.03
2023-01-11T12:08:29.952Z,7.07
2023-01-11T12:11:00.160Z,10.87
2023-01-11T12:13:34.383Z,10.27
2023-01-11T12:16:07.604Z,9.10
2023-01-11T12:18:44.400Z,10.90
2023-01-11T12:21:21.909Z,14.30
2023-01-11T12:24:08.576Z,10.50
2023-01-11T12:27:00.373Z,7.23
2023-01-11T12:29:27.050Z,13.53
2023-01-11T12:32:25.490Z,13.23
2023-01-11T12:35:17.695Z,8.37
2023-01-11T12:37:53.279Z,8.47
2023-01-11T12:40:40.970Z,9.00
2023-01-11T12:43:26.752Z,10.27
2023-01-11T12:46:08.912Z,13.77
2023-01-11T12:48:50.974Z,11.73
2023-01-11T12:52:03.293Z,12.50
2023-01-11T12:54:45.215Z,9.10
2023-01-11T12:57:28.610Z,7.67
2023-01-11T13:00:14.151Z,18.87
2023-01-11T13:02:59.945Z,6.93
2023-01-11T13:05:40.197Z,9.57
2023-01-11T13:08:13.211Z,12.10
2023-01-11T13:10:54.753Z,12.37
2023-01-11T13:13:30.066Z,15.00
2023-01-11T13:16:00.321Z,13.73
2023-01-11T13:18:50.771Z,16.45
2023-01-11T13:21:25.460Z,11.80
2023-01-11T13:23:57.453Z,10.77
2023-01-11T13:26:26.657Z,9.70
2023-01-11T13:29:04.156Z,18.50
2023-01-11T13:31:32.937Z,19.43
2023-01-11T13:34:11.161Z,20.70
2023-01-11T13:36:43.538Z,20.93
2023-01-11T13:39:17.309Z,13.53
2023-01-11T13:41:49.971Z,15.77
2023-01-11T13:44:17.161Z,17.27
2023-01-11T13:46:44.882Z,14.63
2023-01-11T13:49:15.060Z,13.77
2023-01-11T13:51:46.987Z,18.33
2023-01-11T13:54:20.788Z,19.37
2023-01-11T13:56:52.547Z,12.27
2023-01-11T13:59:26.092Z,15.33
2023-01-11T14:01:56.016Z,10.97
2023-01-11T14:04:30.197Z,12.47
2023-01-11T14:06:57.246Z,16.27
2023-01-11T14:09:43.026Z,10.63
2023-01-11T14:12:22.268Z,10.70
2023-01-11T14:15:01.379Z,25.33
2023-01-11T14:17:28.510Z,14.47
2023-01-11T14:20:04.903Z,10.63
2023-01-11T14:22:45.976Z,16.10
2023-01-11T14:25:23.332Z,9.53
2023-01-11T14:27:53.218Z,24.10
2023-01-11T14:30:27.544Z,9.13
2023-01-11T14:33:13.521Z,10.33
2023-01-11T14:35:43.671Z,9.77
2023-01-11T14:38:29.672Z,11.50
2023-01-11T14:41:15.569Z,8.10
2023-01-11T14:43:42.690Z,9.30
2023-01-11T14:46:09.854Z,8.83
2023-01-11T14:48:55.772Z,13.67
2023-01-11T14:51:32.486Z,8.77
2023-01-11T14:54:11.756Z,10.77
2023-01-11T14:56:45.054Z,10.83
2023-01-11T14:59:30.712Z,13.23
2023-01-11T15:02:04.198Z,9.67
2023-01-11T15:04:31.504Z,9.47
2023-01-11T15:06:59.113Z,8.53
2023-01-11T15:09:41.785Z,13.60
2023-01-11T15:12:17.528Z,9.03
2023-01-11T15:14:54.718Z,10.33
2023-01-11T15:17:43.673Z,9.60
2023-01-11T15:20:11.968Z,12.83
2023-01-11T15:22:39.456Z,8.93
2023-01-11T15:25:06.814Z,10.20
2023-01-11T15:27:35.671Z,11.10
2023-01-11T15:30:02.857Z,12.03
2023-01-11T15:32:30.066Z,9.43
2023-01-11T15:35:15.758Z,10.10
2023-01-11T15:37:49.131Z,11.07
2023-01-11T15:40:30.426Z,8.53
2023-01-11T15:43:03.561Z,14.87
2023-01-11T15:45:30.628Z,19.53
2023-01-11T15:48:12.879Z,8.23
2023-01-11T15:50:58.256Z,14.27
2023-01-11T15:53:43.887Z,10.57
2023-01-11T15:56:18.120Z,14.00
2023-01-11T15:58:45.256Z,8.83
2023-01-11T16:01:12.402Z,10.77
2023-01-11T16:03:53.970Z,9.73
2023-01-11T16:06:33.602Z,14.97
2023-01-11T16:09:09.212Z,10.70
2023-01-11T16:11:46.278Z,17.93
2023-01-11T16:14:19.194Z,16.10
2023-01-11T16:16:52.761Z,16.90
2023-01-11T16:19:21.683Z,12.20
2023-01-11T16:21:50.756Z,8.53
2023-01-11T16:24:22.461Z,11.87
2023-01-11T16:26:57.160Z,12.67
2023-01-11T16:29:26.075Z,10.23
2023-01-11T16:31:59.327Z,14.53
2023-01-11T16:34:30.685Z,10.90
2023-01-11T16:36:58.130Z,13.77
2023-01-11T16:39:26.775Z,15.70
2023-01-11T16:41:56.724Z,8.30
2023-01-11T16:44:41.816Z,11.30
2023-01-11T16:47:18.222Z,11.73
2023-01-11T16:49:49.171Z,9.07
2023-01-11T16:52:28.578Z,11.23
2023-01-11T16:54:56.763Z,7.73
2023-01-11T16:57:30.276Z,7.30
2023-01-11T17:00:10.313Z,15.60
2023-01-11T17:02:42.677Z,6.77
2023-01-11T17:05:19.253Z,12.73
2023-01-11T17:07:46.522Z,6.90
2023-01-11T17:10:19.830Z,9.73
2023-01-11T17:12:49.225Z,6.70
2023-01-11T17:15:16.310Z,11.60
2023-01-11T17:17:43.522Z,5.47
2023-01-11T17:20:23.138Z,5.10
2023-01-11T17:22:53.788Z,10.70
2023-01-11T17:25:24.794Z,11.90
2023-01-11T17:27:59.039Z,9.33
2023-01-11T17:30:26.435Z,8.30
2023-01-11T17:32:54.735Z,11.53
2023-01-11T17:35:23.586Z,10.03
2023-01-11T17:37:51.943Z,9.17
2023-01-11T17:40:19.127Z,10.23
2023-01-11T17:43:05.315Z,7.07
2023-01-11T17:45:32.733Z,9.73
2023-01-11T17:48:09.730Z,11.77
2023-01-11T17:50:40.194Z,9.93
2023-01-11T17:53:14.614Z,6.23
2023-01-11T17:55:52.495Z,7.97
2023-01-11T17:58:20.114Z,17.93
2023-01-11T18:01:08.113Z,13.43
2023-01-11T18:03:46.436Z,15.83
2023-01-11T18:06:14.825Z,15.43
2023-01-11T18:08:46.928Z,18.67
2023-01-11T18:11:21.354Z,14.80
2023-01-11T18:13:51.239Z,14.33
2023-01-11T18:16:21.766Z,21.67
2023-01-11T18:18:49.903Z,11.67
2023-01-11T18:21:26.184Z,8.73
2023-01-11T18:24:11.402Z,7.03
2023-01-11T18:26:41.587Z,12.10
2023-01-11T18:29:44.036Z,12.23
2023-01-11T18:32:14.746Z,14.00
2023-01-11T18:34:41.872Z,9.87
2023-01-11T18:37:10.813Z,8.53
2023-01-11T18:39:38.321Z,12.70
2023-01-11T18:42:08.809Z,9.40
2023-01-11T18:44:40.126Z,20.13
2023-01-11T18:47:26.809Z,10.13
2023-01-11T18:49:54.191Z,10.33
2023-01-11T18:52:22.459Z,11.83
2023-01-11T18:54:49.637Z,11.40
2023-01-11T18:57:16.910Z,14.03
2023-01-11T18:59:47.426Z,9.20
2023-01-11T19:04:48.469Z,9.87
2023-01-11T19:07:15.825Z,14.83
2023-01-11T19:09:45.005Z,13.03
2023-01-11T19:12:12.608Z,19.87
2023-01-11T19:14:42.440Z,14.57
2023-01-11T19:17:10.691Z,17.40
2023-01-11T19:19:37.894Z,17.27
2023-01-11T19:22:05.441Z,10.33
2023-01-11T19:24:33.135Z,11.33
2023-01-11T19:27:00.487Z,13.47
2023-01-11T19:29:27.812Z,15.33
2023-01-11T19:31:57.928Z,17.57
2023-01-11T19:34:25.407Z,14.83
2023-01-11T19:36:52.935Z,10.90
2023-01-11T19:39:20.147Z,11.63
2023-01-11T19:42:03.148Z,10.30
2023-01-11T19:44:33.975Z,7.40
2023-01-11T19:47:11.492Z,11.47
2023-01-11T19:49:39.750Z,17.17
2023-01-11T19:52:12.527Z,17.17
2023-01-11T19:54:43.663Z,9.30
2023-01-11T19:57:14.969Z,11.17
2023-01-11T19:59:42.584Z,11.83
2023-01-11T20:02:13.640Z,14.60
2023-01-11T20:04:41.415Z,13.50
2023-01-11T20:07:09.623Z,12.93
2023-01-11T20:09:38.123Z,11.07
2023-01-11T20:12:09.847Z,12.87
2023-01-11T20:14:38.229Z,10.43
2023-01-11T20:17:05.441Z,11.53
2023-01-11T20:19:32.803Z,13.37
2023-01-11T20:21:59.959Z,12.40
2023-01-11T20:24:30.376Z,10.17
2023-01-11T20:26:58.422Z,14.33
2023-01-11T20:29:25.588Z,8.67
2023-01-11T20:31:53.079Z,8.20
2023-01-11T20:34:22.592Z,11.33
2023-01-11T20:36:50.603Z,12.77
2023-01-11T20:39:17.808Z,10.47
2023-01-11T20:41:48.868Z,6.87
2023-01-11T20:44:23.779Z,11.80
2023-01-11T20:46:51.665Z,10.87
2023-01-11T20:49:19.389Z,10.90
2023-01-11T20:51:46.934Z,10.87
2023-01-11T20:54:14.493Z,11.90
2023-01-11T20:56:44.673Z,13.50
2023-01-11T20:59:13.599Z,15.60
2023-01-11T21:01:41.048Z,8.67
2023-01-11T21:04:11.005Z,11.80
2023-01-11T21:06:40.449Z,12.67
2023-01-11T21:09:08.408Z,16.07
2023-01-11T21:11:36.023Z,17.30
2023-01-11T21:14:11.889Z,20.57
2023-01-11T21:16:42.593Z,7.70
2023-01-11T21:19:11.631Z,11.83
2023-01-11T21:21:38.923Z,9.43
2023-01-11T21:24:08.699Z,12.30
2023-01-11T21:26:35.884Z,15.67
2023-01-11T21:31:49.769Z,10.53
2023-01-11T21:34:16.978Z,9.80
2023-01-11T21:36:44.425Z,15.63
2023-01-11T21:39:13.024Z,15.97
2023-01-11T21:41:55.605Z,13.67
2023-01-11T21:44:25.802Z,10.10
2023-01-11T21:47:01.122Z,16.10
2023-01-11T21:49:28.523Z,10.83
2023-01-11T21:51:55.747Z,7.50
2023-01-11T21:54:22.933Z,9.73
2023-01-11T21:56:50.554Z,12.70
2023-01-11T21:59:17.776Z,7.97
2023-01-11T22:01:45.603Z,7.27
2023-01-11T22:04:14.212Z,16.60
2023-01-11T22:06:42.439Z,10.10
2023-01-11T22:09:11.043Z,12.33
2023-01-11T22:11:40.979Z,10.33
2023-01-11T22:14:08.857Z,8.70
2023-01-11T22:16:38.896Z,8.37
2023-01-11T22:19:07.927Z,7.43
2023-01-11T22:21:35.962Z,11.00
2023-01-11T22:24:03.257Z,6.37
2023-01-11T22:26:33.335Z,7.07
2023-01-11T22:29:14.845Z,8.07
2023-01-11T22:31:43.617Z,7.70
2023-01-11T22:34:11.470Z,5.50
2023-01-11T22:36:38.826Z,16.43
2023-01-11T22:39:06.229Z,10.73
2023-01-11T22:41:33.561Z,18.33
2023-01-11T22:44:00.929Z,11.57
2023-01-11T22:46:28.395Z,3.90
2023-01-11T22:48:55.565Z,9.53
2023-01-11T22:51:25.693Z,8.90
2023-01-11T22:53:53.509Z,10.47
2023-01-11T22:56:24.835Z,10.73
2023-01-11T22:58:52.821Z,9.50
2023-01-11T23:01:21.234Z,10.93
2023-01-11T23:03:49.129Z,12.33
2023-01-11T23:06:20.298Z,12.87
2023-01-11T23:08:48.477Z,10.30
2023-01-11T23:11:40.008Z,20.10
2023-01-11T23:14:11.905Z,9.50
2023-01-11T23:16:39.173Z,9.77
2023-01-11T23:19:07.117Z,12.73
2023-01-11T23:21:34.298Z,11.63
2023-01-11T23:24:02.110Z,7.93
2023-01-11T23:26:29.494Z,11.17
2023-01-11T23:28:56.946Z,11.10
2023-01-11T23:31:24.880Z,14.17
2023-01-11T23:33:56.442Z,8.60
2023-01-11T23:36:24.862Z,14.50
2023-01-11T23:38:52.055Z,16.53
2023-01-11T23:41:38.171Z,7.73
2023-01-11T23:44:06.247Z,12.00
2023-01-11T23:46:51.660Z,12.90
2023-01-11T23:49:18.803Z,16.13
2023-01-11T23:51:45.942Z,12.43
2023-01-11T23:54:13.223Z,9.50
2023-01-11T23:56:40.472Z,6.90
2023-01-11T23:59:08.116Z,12.87
